CSUN New Campus Station -PST Time - Most Recent Data on bottom of page




           Date/Time      Avg      Avg      Max     Wind      Avg      Max      Min      Avg      Avg    Total      Avg     Batt
                         Wind     Wind     Wind      Dir     Temp     Temp     Temp       RH      Bar     Rain    Solar     Volt
                      Spd MPH      Dir  Spd MPH   at Max    Deg_F    Deg_F    Deg_F        % Press_mb   Inches     W/m2      Min
--------------------------------------------------------------------------------------------------------------------------------
    03/22/2017 00:00      2.3      167      4.0      170     55.6     55.7     55.3       91     1016     0.00        0     13.3
    03/22/2017 00:15      2.6      161      4.7      152     55.7     56.0     55.4       91     1016     0.00        0     13.3
    03/22/2017 00:30      2.9      171      5.3      182     55.7     55.9     55.4       91     1016     0.01        0     13.3
    03/22/2017 00:45      2.2      157      3.8      168     55.7     55.9     55.5       91     1016     0.00        0     13.3
    03/22/2017 01:00      2.3      163      4.9      195     55.8     56.0     55.6       91     1016     0.00        0     13.3
    03/22/2017 01:15      3.0      177      5.2      177     55.6     55.9     55.4       91     1016     0.00        0     13.3
    03/22/2017 01:30      0.6      125      1.7       76     55.8     55.9     55.5       91     1016     0.00        0     13.3
    03/22/2017 01:45      0.9      128      1.9      122     55.6     55.9     55.3       91     1016     0.00        0     13.3
    03/22/2017 02:00      0.0        0      0.0      134     55.6     55.9     55.3       91     1016     0.00        0     13.3
    03/22/2017 02:15      0.0        0      0.0      151     55.7     55.9     55.5       91     1015     0.00        0     13.3
    03/22/2017 02:30      0.0        0      0.0      269     55.7     55.9     55.4       91     1015     0.00        0     13.3
    03/22/2017 02:45      0.0        0      0.0      269     55.7     55.8     55.4       91     1015     0.00        0     13.3
    03/22/2017 03:00      0.5      148      1.3      145     55.7     55.9     55.5       91     1015     0.00        0     13.3
    03/22/2017 03:15      1.1      210      2.5      214     55.6     55.8     55.4       91     1015     0.00        0     13.3
    03/22/2017 03:30      0.6      219      1.7      190     55.4     55.7     55.1       91     1015     0.00        0     13.3
    03/22/2017 03:45      0.6      264      3.3      249     55.6     55.9     55.2       91     1015     0.00        0     13.3
    03/22/2017 04:00      0.3      258      1.8      266     55.6     55.9     55.3       91     1015     0.00        0     13.3
    03/22/2017 04:15      0.4      281      1.6      290     55.3     55.6     55.0       91     1015     0.00        0     13.3
    03/22/2017 04:30      0.0        0      0.0      267     55.1     55.4     54.8       91     1015     0.00        0     13.3
    03/22/2017 04:45      0.5      311      1.1      297     54.8     55.0     54.5       91     1015     0.00        0     13.3
    03/22/2017 05:00      0.3      291      1.4      298     54.5     54.8     54.1       91     1015     0.00        0     13.3
    03/22/2017 05:15      0.3      114      1.2      110     54.1     54.4     53.8       91     1015     0.00        0     13.3
    03/22/2017 05:30      0.0      271      1.3      259     53.7     54.2     53.3       91     1015     0.00        0     13.3
    03/22/2017 05:45      0.4      298      1.1      257     53.2     53.5     52.9       91     1015     0.00        0     13.3
    03/22/2017 06:00      0.3      323      1.3      310     53.3     53.6     53.0       91     1015     0.00        2     13.4
    03/22/2017 06:15      0.2       93      1.3       96     53.3     53.6     52.9       91     1015     0.00       14     13.3
    03/22/2017 06:30      0.1      161      1.3      165     52.8     53.3     52.5       92     1015     0.00       40     13.3
    03/22/2017 06:45      2.1      198      4.5      195     53.8     54.3     53.1       92     1015     0.00       64     13.3
    03/22/2017 07:00      1.5      207      4.1      191     54.3     54.5     54.1       92     1016     0.00       67     13.3
    03/22/2017 07:15      2.2      210      5.7      182     54.4     54.8     54.1       92     1016     0.00       81     13.3
    03/22/2017 07:30      1.8      229      4.6      256     54.7     55.0     54.4       91     1016     0.00       82     13.3
    03/22/2017 07:45      1.0      238      3.0      257     54.9     55.1     54.6       91     1016     0.00       76     13.3
    03/22/2017 08:00      1.1      233      3.3      259     55.5     55.9     54.8       91     1016     0.00      211     13.3
    03/22/2017 08:15      2.5      264      5.7      233     56.2     56.6     55.5       89     1016     0.00      305     13.3
    03/22/2017 08:30      4.1      264      8.8      248     56.8     57.3     56.3       82     1016     0.00      322     13.3
    03/22/2017 08:45      3.9      269      8.2      250     57.6     57.9     57.1       77     1016     0.00      293     13.3
    03/22/2017 09:00      3.8      272      8.5      259     58.3     59.0     57.5       74     1016     0.00      375     13.2
    03/22/2017 09:15      3.5      263      8.0      242     58.0     58.9     57.6       73     1016     0.00      325     13.2
    03/22/2017 09:30      3.4      269      7.8      231     59.1     59.7     58.7       71     1016     0.00      491     13.2
    03/22/2017 09:45      4.0      206      8.3      193     59.3     59.6     59.1       70     1016     0.00      389     13.2
    03/22/2017 10:00      4.0      245      8.7      267     60.2     60.7     59.6       65     1016     0.00      584     13.2
    03/22/2017 10:15      3.5      237     10.0      252     60.8     61.0     60.4       63     1016     0.00      561     13.1
    03/22/2017 10:30      4.6      252      9.8      247     60.8     61.5     59.9       61     1016     0.00      430     13.1
    03/22/2017 10:45      3.8      231      9.8      309     60.3     60.7     59.9       62     1016     0.00      228     13.1
    03/22/2017 11:00      3.7      263      9.6      259     60.5     60.9     60.3       61     1016     0.00      248     13.2
    03/22/2017 11:15      3.9      276      8.5      254     60.5     60.8     60.3       59     1016     0.00      205     13.2
    03/22/2017 11:30      4.1      271      8.8      247     61.1     61.7     60.6       58     1016     0.00      401     13.2
    03/22/2017 11:45      3.8      279      9.1      298     62.1     63.1     61.2       54     1016     0.00      602     13.1
    03/22/2017 12:00      5.1      280     12.4      245     62.2     62.7     61.9       52     1016     0.00      548     13.1
    03/22/2017 12:15      5.6      285     10.9      307     62.3     62.9     61.6       48     1015     0.00      517     13.1
    03/22/2017 12:30      4.5      275      8.7      297     62.5     63.5     61.7       54     1015     0.00      746     13.1
    03/22/2017 12:45      4.0      249     11.0      242     63.5     64.0     62.9       51     1015     0.00      629     13.1
    03/22/2017 13:00      6.1      233     14.4      198     63.4     64.0     62.8       50     1015     0.00      787     13.1
    03/22/2017 13:15      4.6      254      9.8      235     63.4     64.1     62.9       49     1014     0.00      485     13.1
    03/22/2017 13:30      4.4      258     11.3      248     63.9     64.3     63.1       48     1014     0.00      549     13.1
    03/22/2017 13:45      3.4      251      9.7      274     64.4     64.9     64.0       46     1014     0.00      583     13.1
    03/22/2017 14:00      5.0      277      9.8      262     64.5     65.2     64.0       45     1014     0.00      622     13.1
    03/22/2017 14:15      4.5      246     11.6      246     65.3     65.8     64.9       47     1014     0.00      718     13.1
    03/22/2017 14:30      4.7      272     12.6      293     65.3     65.7     64.9       46     1013     0.00      665     13.0
    03/22/2017 14:45      5.3      257     13.7      243     65.2     65.9     64.5       46     1013     0.00      561     13.0
    03/22/2017 15:00      5.9      258     13.7      249     64.2     65.2     63.3       53     1013     0.00      359     13.0
    03/22/2017 15:15      6.6      254     14.9      275     64.4     65.4     63.8       49     1013     0.00      525     13.1
    03/22/2017 15:30      6.1      227     13.8      232     64.1     64.6     63.3       49     1013     0.00      423     13.1
    03/22/2017 15:45      5.9      254     13.5      247     62.4     63.5     61.9       50     1013     0.00      112     13.1
    03/22/2017 16:00      5.9      244     14.0      237     62.9     63.5     61.8       52     1013     0.00      417     13.1
    03/22/2017 16:15      7.3      238     16.3      254     62.7     63.2     62.1       51     1013     0.00      379     13.1
    03/22/2017 16:30      6.7      255     16.6      249     62.1     62.6     61.4       52     1013     0.00      288     13.1
    03/22/2017 16:45      5.7      262     11.5      242     61.9     62.2     61.5       53     1013     0.00      160     13.1
    03/22/2017 17:00      5.8      253     12.8      255     61.5     61.8     61.0       53     1013     0.00       82     13.1
    03/22/2017 17:15      6.8      266     15.3      243     61.0     61.2     60.6       54     1013     0.00       76     13.1
    03/22/2017 17:30      7.4      249     15.9      257     60.3     60.8     59.9       57     1013     0.00       97     13.1
    03/22/2017 17:45      6.4      251     12.9      231     59.7     60.1     59.2       59     1013     0.00       52     13.2
    03/22/2017 18:00      6.0      259     11.4      249     58.6     59.3     58.0       63     1013     0.00       16     13.2
    03/22/2017 18:15      5.2      254     13.2      262     57.7     58.1     57.3       67     1013     0.00        5     13.2
    03/22/2017 18:30      4.0      248      8.9      271     57.2     57.6     56.8       68     1013     0.00        0     13.2
    03/22/2017 18:45      5.0      257     12.2      250     57.0     57.2     56.7       67     1013     0.00        0     13.3
    03/22/2017 19:00      4.2      277      9.7      293     56.8     57.1     56.6       68     1014     0.00        0     13.3
    03/22/2017 19:15      3.7      280      6.8      247     56.9     57.1     56.6       66     1014     0.00        0     13.3
    03/22/2017 19:30      3.1      285      7.9      302     57.1     57.4     56.9       57     1014     0.00        0     13.3
    03/22/2017 19:45      1.7      298      8.9      331     57.4     57.7     57.0       50     1014     0.00        0     13.3
    03/22/2017 20:00      1.1       16      3.3      326     56.8     57.1     56.5       50     1014     0.00        0     13.3
    03/22/2017 20:15      0.9      297      2.9      354     56.1     56.8     55.1       55     1014     0.00        0     13.3
    03/22/2017 20:30      0.4      281      1.7      241     54.8     55.3     54.4       62     1014     0.00        0     13.3
    03/22/2017 20:45      0.7      287      3.1      257     54.7     55.0     54.3       68     1014     0.00        0     13.3
    03/22/2017 21:00      0.4      321      2.1      320     53.9     54.4     53.5       68     1014     0.00        0     13.3
    03/22/2017 21:15      0.2      298      1.4      261     53.0     53.5     52.4       66     1014     0.00        0     13.3
    03/22/2017 21:30      0.7      320      4.7      322     52.5     52.9     52.2       61     1014     0.00        0     13.4
    03/22/2017 21:45      1.6      340      4.5      346     53.6     54.2     52.7       56     1014     0.00        0     13.4
    03/22/2017 22:00      1.9      282      5.6      251     53.9     54.4     53.3       67     1014     0.00        0     13.4
    03/22/2017 22:15      0.9      266      3.5      258     52.9     53.5     51.9       72     1014     0.00        0     13.4
    03/22/2017 22:30      1.1      263      3.2      290     51.8     52.2     51.4       71     1014     0.00        0     13.4
    03/22/2017 22:45      1.3      280      3.8      244     51.7     52.1     51.2       71     1014     0.00        0     13.4
    03/22/2017 23:00      0.6      307      2.8      294     51.6     52.0     51.2       73     1014     0.00        0     13.4
    03/22/2017 23:15      0.7      280      2.9      298     51.1     51.5     50.7       73     1015     0.00        0     13.4
    03/22/2017 23:30      1.4      246      3.9      266     50.4     50.8     50.0       75     1015     0.00        0     13.4
    03/22/2017 23:45      1.0      292      4.1      262     50.4     50.6     50.3       76     1015     0.00        0     13.4
    03/23/2017 00:00      1.2      256      3.4      199     50.2     50.6     49.7       77     1015     0.00        0     13.4
    03/23/2017 00:15      1.3      282      3.6      256     49.8     50.1     49.4       77     1015     0.00        0     13.4
    03/23/2017 00:30      1.8      270      4.7      253     49.9     50.6     49.5       74     1015     0.00        0     13.4
    03/23/2017 00:45      1.5      222      6.6      285     50.5     51.4     50.0       68     1015     0.00        0     13.4
    03/23/2017 01:00      2.5      213      6.4      251     51.4     52.0     50.8       60     1015     0.00        0     13.4
    03/23/2017 01:15      1.1      271      4.0      331     51.3     52.0     50.5       72     1015     0.00        0     13.4
    03/23/2017 01:30      2.1      232      6.8      248     50.0     50.8     49.4       76     1015     0.00        0     13.4
    03/23/2017 01:45      2.1      237      6.7      247     49.7     50.0     49.3       76     1015     0.00        0     13.4
    03/23/2017 02:00      2.2      273      4.8      252     49.5     49.8     49.3       71     1015     0.00        0     13.4
    03/23/2017 02:15      1.8      276      5.2      230     50.0     50.3     49.5       69     1015     0.00        0     13.4
    03/23/2017 02:30      1.7      302      4.4      273     49.8     50.2     49.4       66     1015     0.00        0     13.4
    03/23/2017 02:45      5.7      323     17.3      350     51.6     52.6     50.0       54     1015     0.00        0     13.4
    03/23/2017 03:00      5.7      321     17.2      348     52.1     52.5     51.7       57     1015     0.00        0     13.4
    03/23/2017 03:15      4.1      304     10.9      318     51.8     52.0     51.4       56     1015     0.00        0     13.4
    03/23/2017 03:30      5.5      326     16.4      338     51.9     52.5     51.5       53     1015     0.00        0     13.4
    03/23/2017 03:45      6.7      340     16.7      328     52.2     52.5     52.0       53     1015     0.00        0     13.4
    03/23/2017 04:00      8.7      337     19.9      354     52.1     52.3     51.9       52     1015     0.00        0     13.4
    03/23/2017 04:15      8.0      325     21.4      350     52.1     52.3     51.9       52     1015     0.00        0     13.4
    03/23/2017 04:30      5.8      311     20.1      319     51.9     52.2     51.5       52     1016     0.00        0     13.4
    03/23/2017 04:45      7.7      331     17.3      343     52.0     52.2     51.7       51     1016     0.00        0     13.4
    03/23/2017 05:00      4.8      319     12.6      324     52.0     52.3     51.8       50     1016     0.00        0     13.4
    03/23/2017 05:15      4.8      344     12.2      335     52.2     52.5     51.9       51     1016     0.00        0     13.4
    03/23/2017 05:30      4.3        2     11.3       62     52.1     52.5     51.8       52     1016     0.00        0     13.4
    03/23/2017 05:45      6.1      331     19.8      350     51.7     52.1     51.3       51     1016     0.00        0     13.4
    03/23/2017 06:00      7.7      330     21.2      329     51.9     52.1     51.5       51     1016     0.00        3     13.4
    03/23/2017 06:15      7.1      341     20.6      353     51.8     52.0     51.7       52     1016     0.00       10     13.4
    03/23/2017 06:30      5.6      334     17.9      332     51.5     51.8     51.2       51     1017     0.00       17     13.4
    03/23/2017 06:45      5.4      315     14.2      344     51.9     52.1     51.5       51     1017     0.00       66     13.4
    03/23/2017 07:00      5.5      298     14.3      289     52.3     52.8     51.9       48     1017     0.00      149     13.4
    03/23/2017 07:15      5.3      278     12.0      246     53.1     53.6     52.6       46     1017     0.00      196     13.3
    03/23/2017 07:30      2.6      288     10.7      245     54.0     54.5     53.5       44     1017     0.00      245     13.3
    03/23/2017 07:45      2.4      269      6.9      248     54.9     55.6     54.4       45     1017     0.00      297     13.3
    03/23/2017 08:00      3.5      251     10.5      180     55.6     55.9     55.3       42     1017     0.00      347     13.3
    03/23/2017 08:15      3.3       61     12.2      343     55.8     56.5     55.1       41     1018     0.00      396     13.3
    03/23/2017 08:30      2.1      346      6.3       26     56.1     56.5     55.5       42     1018     0.00      445     13.2
    03/23/2017 08:45      3.6        3     10.8       33     56.3     57.0     55.7       39     1018     0.00      491     13.2
    03/23/2017 09:00      3.5       14     10.7       20     57.4     58.0     56.8       39     1018     0.00      535     13.2
    03/23/2017 09:15      3.6      345     10.6       27     58.2     59.0     57.7       35     1018     0.00      578     13.2
    03/23/2017 09:30      3.0      352      7.9       53     59.3     59.9     58.8       35     1018     0.00      617     13.2
    03/23/2017 09:45      2.8        4      8.2      311     59.8     60.4     59.2       35     1019     0.00      652     13.1
    03/23/2017 10:00      2.9      336     10.3      347     60.4     61.0     59.8       32     1019     0.00      685     13.1
    03/23/2017 10:15      2.5      347      5.8      341     61.5     62.1     60.7       33     1019     0.00      715     13.1
    03/23/2017 10:30      4.8       35     10.7       50     61.0     62.2     60.0       34     1019     0.00      740     13.1
    03/23/2017 10:45      1.9        9      6.4       81     61.5     62.5     60.6       36     1019     0.00      765     13.1
    03/23/2017 11:00      3.3      320      9.9      340     61.6     62.7     60.5       36     1019     0.01      783     13.1
    03/23/2017 11:15      4.0      301     14.9      251     62.3     62.8     61.4       35     1019     0.00      800     13.1
    03/23/2017 11:30      4.1      314     11.1      277     62.7     63.9     61.8       32     1019     0.00      811     13.1
    03/23/2017 11:45      3.6      307      8.8      338     63.1     64.0     62.5       34     1019     0.00      820     13.1
    03/23/2017 12:00      2.6      294      8.6      259     64.2     65.4     63.6       30     1019     0.00      824     13.1
    03/23/2017 12:15      4.2      309      9.9      340     65.4     65.8     64.6       27     1019     0.00      824     13.1
    03/23/2017 12:30      3.4      327     11.1       20     65.9     66.3     65.1       28     1019     0.00      820     13.0
    03/23/2017 12:45      3.7      312      9.4      331     66.6     67.3     66.0       25     1018     0.00      814     13.0
    03/23/2017 13:00      3.6      332     12.9      338     67.5     67.8     67.0       21     1018     0.00      806     13.0
    03/23/2017 13:15      4.6      326     12.3      351     67.8     68.1     67.3       19     1018     0.00      795     13.0
    03/23/2017 13:30      3.7      322     12.5      322     68.3     69.2     67.8       16     1018     0.00      779     13.0
    03/23/2017 13:45      5.5       11     11.5       17     68.2     69.1     67.1       20     1018     0.00      755     13.0
    03/23/2017 14:00      4.7       20     13.1      329     68.0     68.9     67.0       18     1018     0.00      725     13.0
    03/23/2017 14:15      4.0       58     10.9       46     68.4     69.0     67.8       20     1017     0.00      691     13.0
    03/23/2017 14:30      1.8       53      6.9       47     68.8     70.0     67.6       21     1017     0.00      657     13.0
    03/23/2017 14:45      3.7      249      8.6      246     69.2     69.9     68.5       27     1017     0.00      619     13.0
    03/23/2017 15:00      3.5      274      8.3      275     69.3     69.9     68.4       29     1017     0.00      579     13.0
    03/23/2017 15:15      4.0      273     11.8      249     69.0     69.8     68.2       30     1018     0.00      537     13.0
    03/23/2017 15:30      4.5      284     12.0      243     68.6     69.1     67.9       29     1018     0.00      491     13.0
    03/23/2017 15:45      5.0      258     10.1      267     67.9     68.4     67.3       31     1017     0.00      444     13.0
    03/23/2017 16:00      5.3      261     12.9      257     67.8     68.3     66.9       32     1018     0.00      396     13.0
    03/23/2017 16:15      5.2      245     13.6      249     66.9     67.2     66.3       34     1017     0.00      332     13.0
    03/23/2017 16:30      4.4      261      9.9      266     66.7     67.4     66.1       32     1018     0.00      293     13.0
    03/23/2017 16:45      3.3      264      9.5      258     66.3     66.7     65.6       32     1018     0.00      132     13.0
    03/23/2017 17:00      4.0      244      9.7      249     66.0     66.4     65.6       33     1018     0.00       69     13.0
    03/23/2017 17:15      3.1      251      8.6      246     65.7     66.0     65.5       34     1018     0.00      105     13.1
    03/23/2017 17:30      5.4      258     12.0      260     64.8     65.7     63.9       38     1018     0.00      101     13.1
    03/23/2017 17:45      5.1      261      9.9      236     63.4     64.0     62.5       40     1019     0.00       55     13.1
    03/23/2017 18:00      4.1      275      9.4      268     62.0     62.7     61.2       42     1019     0.00       21     13.1
    03/23/2017 18:15      3.8      267     10.5      255     60.7     61.3     60.2       43     1019     0.00        5     13.2
    03/23/2017 18:30      2.1      265      5.3      242     59.9     60.4     59.5       45     1019     0.00        0     13.2
    03/23/2017 18:45      1.2      230      3.4      249     59.0     59.7     58.5       46     1020     0.00        0     13.2
    03/23/2017 19:00      2.2      276      4.8      248     58.6     58.9     58.3       50     1020     0.00        0     13.2
    03/23/2017 19:15      1.6      280      6.1      251     58.4     58.8     58.1       53     1020     0.00        0     13.3
    03/23/2017 19:30      0.6      285      2.4      294     57.9     58.4     57.4       56     1020     0.00        0     13.3
    03/23/2017 19:45      0.0      286      0.8      287     57.0     57.5     56.8       57     1020     0.00        0     13.3
    03/23/2017 20:00      0.0        0      0.0      299     56.6     57.0     56.1       59     1021     0.00        0     13.3
    03/23/2017 20:15      0.0       30      1.4       39     56.0     56.4     55.8       60     1021     0.00        0     13.3
    03/23/2017 20:30      0.0        0      0.0      280     55.9     56.3     55.4       62     1021     0.00        0     13.3
    03/23/2017 20:45      0.1      108      1.5       76     55.6     56.0     55.2       61     1021     0.00        0     13.3
    03/23/2017 21:00      0.4       84      2.8       99     55.4     56.0     55.0       62     1021     0.00        0     13.3
    03/23/2017 21:15      0.5       77      2.4       59     55.5     55.8     55.2       63     1021     0.00        0     13.3
    03/23/2017 21:30      1.2       76      3.6       64     55.6     55.8     55.3       67     1021     0.00        0     13.3
    03/23/2017 21:45      0.7       82      2.5       64     55.0     55.5     54.7       70     1021     0.00        0     13.3
    03/23/2017 22:00      1.2       83      3.2       97     55.0     55.2     54.7       71     1021     0.00        0     13.3
    03/23/2017 22:15      0.8       81      2.3       71     54.6     55.0     54.2       73     1021     0.00        0     13.3
    03/23/2017 22:30      1.1       79      2.7       53     54.3     54.5     53.8       74     1022     0.00        0     13.3
    03/23/2017 22:45      1.6       77      3.1       75     53.7     54.0     53.5       75     1022     0.00        0     13.4
    03/23/2017 23:00      2.3       81      4.7       72     53.5     53.7     53.2       77     1022     0.00        0     13.4
    03/23/2017 23:15      2.9       77      5.4       65     53.4     53.6     53.2       76     1022     0.00        0     13.4
    03/23/2017 23:30      4.1       76      6.9       79     53.4     53.5     53.1       77     1022     0.00        0     13.4
    03/23/2017 23:45      4.2       78      7.5       86     53.2     53.5     53.0       78     1022     0.00        0     13.4
    03/24/2017 00:00      4.1       77      7.8       80     53.0     53.2     52.7       79     1022     0.00        0     13.4
    03/24/2017 00:15      1.9       62      4.0       64     52.6     52.9     52.3       79     1022     0.00        0     13.4
    03/24/2017 00:30      0.9       36      3.3       34     52.2     52.5     51.8       81     1022     0.00        0     13.4
    03/24/2017 00:45      0.0       21      1.4       36     51.5     52.1     51.0       82     1022     0.00        0     13.4
    03/24/2017 01:00      0.0       38      2.3       11     51.0     51.3     50.7       81     1022     0.00        0     13.4
    03/24/2017 01:15      0.9       34      2.7       -0     51.2     51.7     50.8       80     1022     0.00        0     13.4
    03/24/2017 01:30      1.3      354      3.1      337     51.3     51.7     51.0       77     1022     0.00        0     13.4
    03/24/2017 01:45      1.4      342      3.0      345     51.2     51.4     51.0       77     1022     0.00        0     13.4
    03/24/2017 02:00      1.2      347      2.7      350     51.4     51.5     51.2       77     1022     0.00        0     13.4
    03/24/2017 02:15      0.8      313      1.8      339     50.9     51.4     50.3       79     1022     0.00        0     13.4
    03/24/2017 02:30      0.9      284      2.4      239     50.1     50.4     49.8       81     1022     0.00        0     13.4
    03/24/2017 02:45      0.2      313      1.1      312     49.8     50.1     49.5       82     1022     0.00        0     13.4
    03/24/2017 03:00      0.9      324      2.3      316     49.7     50.0     49.2       82     1022     0.00        0     13.4
    03/24/2017 03:15      0.7      316      1.7      328     49.1     49.5     48.8       84     1022     0.00        0     13.4
    03/24/2017 03:30      0.9      331      2.2      334     49.0     49.3     48.8       84     1022     0.00        0     13.4
    03/24/2017 03:45      0.2      353      1.4      343     48.7     49.1     48.5       85     1022     0.00        0     13.4
    03/24/2017 04:00      0.9      340      2.1       45     48.7     49.0     48.5       85     1022     0.00        0     13.4
    03/24/2017 04:15      2.3       31      4.4       35     48.6     48.9     48.0       83     1022     0.00        0     13.4
    03/24/2017 04:30      0.9       22      2.8      343     48.0     48.3     47.7       84     1022     0.00        0     13.4
    03/24/2017 04:45      0.4      322      1.3      326     47.8     48.2     47.5       84     1022     0.00        0     13.4
    03/24/2017 05:00      0.0      321      0.8      321     47.2     47.8     46.6       83     1022     0.00        0     13.4
    03/24/2017 05:15      0.0      291      0.7      308     46.6     47.0     46.3       85     1022     0.00        0     13.4
    03/24/2017 05:30      0.0        0      0.0      284     46.3     46.6     46.0       85     1022     0.00        0     13.5
    03/24/2017 05:45      0.0        0      0.0      332     46.0     46.2     45.7       86     1022     0.00        0     13.5
    03/24/2017 06:00      1.1       74      2.7       80     46.2     46.8     45.8       87     1022     0.00        4     13.5
    03/24/2017 06:15      0.3      323      1.2      347     46.5     46.8     46.3       86     1023     0.00       13     13.5
    03/24/2017 06:30      0.0      327      0.5      327     46.7     47.2     46.3       86     1023     0.00       23     13.5
    03/24/2017 06:45      0.0        0      0.0      328     47.7     49.0     47.0       86     1023     0.00       68     13.4
    03/24/2017 07:00      0.1      279      1.1      268     49.8     50.6     49.0       81     1023     0.00      131     13.4
    03/24/2017 07:15      0.0      276      0.6      255     51.5     52.6     50.5       77     1023     0.00      177     13.4
    03/24/2017 07:30      0.1      222      1.3      226     53.4     54.2     52.5       73     1023     0.00      227     13.4
    03/24/2017 07:45      0.5      226      1.3      202     54.1     54.8     53.6       73     1023     0.00      278     13.3
    03/24/2017 08:00      0.7      201      3.0      211     55.4     56.4     54.4       68     1023     0.00      329     13.3
    03/24/2017 08:15      1.1      197      3.0      150     56.2     57.1     55.4       66     1023     0.00      376     13.3
    03/24/2017 08:30      1.1      174      2.7      164     57.9     58.9     56.9       58     1023     0.00      428     13.2
    03/24/2017 08:45      0.6      174      2.6      192     58.0     59.0     57.4       55     1023     0.00      473     13.2
    03/24/2017 09:00      1.5      126      4.9      150     59.7     60.3     58.9       55     1023     0.00      516     13.2
    03/24/2017 09:15      2.7      145      7.3      145     60.6     61.1     60.2       48     1023     0.00      560     13.1
    03/24/2017 09:30      3.4      162      6.6      181     60.9     61.6     60.5       50     1023     0.00      593     13.1
    03/24/2017 09:45      1.5      232      4.5      243     60.9     61.9     60.1       45     1023     0.00      630     13.1
    03/24/2017 10:00      1.3       91      3.3      149     62.1     63.4     61.2       45     1023     0.00      659     13.1
    03/24/2017 10:15      2.5      185      6.8      175     63.1     63.7     62.3       45     1023     0.00      695     13.1
    03/24/2017 10:30      3.1      202      5.9      201     63.1     63.8     62.3       43     1023     0.00      724     13.1
    03/24/2017 10:45      1.6      310      3.6      296     63.7     64.3     63.2       41     1022     0.00      745     13.1
    03/24/2017 11:00      2.3      281      7.0      251     64.7     65.6     63.8       39     1022     0.00      764     13.0
    03/24/2017 11:15      2.7      224      6.8      212     65.5     66.3     64.6       34     1022     0.00      780     13.0
    03/24/2017 11:30      2.0      184      8.1      244     66.8     68.4     65.6       36     1022     0.00      793     13.0
    03/24/2017 11:45      2.5      231      7.2      252     67.0     68.0     66.3       35     1022     0.00      801     13.0
    03/24/2017 12:00      2.5      178      7.2      164     67.7     68.4     66.7       34     1022     0.00      805     13.0
    03/24/2017 12:15      3.8      193      7.4      188     68.5     68.9     67.8       35     1022     0.00      802     13.0
    03/24/2017 12:30      3.1      187      9.3      186     68.5     69.7     67.7       34     1021     0.00      798     13.0
    03/24/2017 12:45      3.1      155     10.3      193     69.3     70.2     68.3       35     1021     0.00      788     13.0
    03/24/2017 13:00      3.5      212      8.4      187     70.0     70.6     69.5       37     1021     0.00      773     13.0
    03/24/2017 13:15      2.8      269     10.3      263     70.8     71.4     70.3       32     1020     0.00      761     13.0
    03/24/2017 13:30      5.4      266     15.9      247     70.3     71.0     69.7       32     1020     0.00      743     13.0
    03/24/2017 13:45      5.2      265     11.0      272     70.4     70.8     69.9       30     1020     0.00      722     13.0
    03/24/2017 14:00      6.0      266     16.9      258     69.6     70.1     69.1       33     1020     0.00      694     13.0
    03/24/2017 14:15      5.6      276     12.9      239     69.0     70.0     68.1       36     1020     0.00      666     13.0
    03/24/2017 14:30      5.9      275     15.6      246     68.6     69.5     67.4       35     1020     0.00      635     13.0
    03/24/2017 14:45      6.1      273     16.3      251     67.2     68.1     66.7       37     1020     0.00      525     13.0
    03/24/2017 15:00      5.2      279     12.0      256     66.9     67.8     66.2       40     1020     0.00      388     13.0
    03/24/2017 15:15      4.8      284     10.8      252     66.6     67.0     66.1       45     1020     0.00      478     13.0
    03/24/2017 15:30      5.4      274     12.2      288     66.6     67.2     66.1       45     1020     0.00      474     13.0
    03/24/2017 15:45      5.6      264     10.9      255     65.8     66.6     65.0       49     1020     0.00      334     13.0
    03/24/2017 16:00      4.7      262     11.2      252     65.4     65.7     64.9       49     1020     0.00      345     13.0
    03/24/2017 16:15      5.9      260     12.5      256     65.0     65.5     64.6       48     1020     0.00      338     13.0
    03/24/2017 16:30      5.3      266     11.4      241     64.4     64.6     64.0       49     1020     0.00      286     13.1
    03/24/2017 16:45      3.9      268      9.5      245     63.8     64.4     62.9       53     1020     0.00      172     13.1
    03/24/2017 17:00      4.1      268     10.6      246     62.9     63.2     62.5       54     1020     0.00       97     13.1
    03/24/2017 17:15      4.3      269      9.9      249     62.1     62.6     61.7       58     1019     0.00      111     13.1
    03/24/2017 17:30      6.3      253     11.5      253     61.0     61.8     60.5       60     1020     0.00       69     13.1
    03/24/2017 17:45      6.2      245     11.8      262     60.0     60.6     59.5       63     1020     0.00       26     13.1
    03/24/2017 18:00      5.1      254     10.5      250     59.2     59.6     58.7       64     1020     0.00       10     13.2
    03/24/2017 18:15      4.8      258     10.1      255     58.6     59.0     58.3       64     1020     0.00        3     13.2
    03/24/2017 18:30      6.1      254     12.1      261     58.0     58.4     57.5       64     1020     0.00        0     13.2
    03/24/2017 18:45      3.3      272      9.8      247     57.5     57.8     57.1       62     1020     0.00        0     13.2
    03/24/2017 19:00      4.3      258      9.7      260     57.0     57.3     56.6       58     1020     0.00        0     13.3
    03/24/2017 19:15      2.8      267      8.2      250     56.5     56.8     56.2       56     1020     0.00        0     13.3
    03/24/2017 19:30      2.6      253      7.2      248     56.2     56.5     55.8       56     1020     0.00        0     13.3
    03/24/2017 19:45      2.0      229      6.1      256     55.9     56.2     55.6       57     1020     0.00        0     13.3
    03/24/2017 20:00      1.7      227      6.0      211     55.5     55.8     55.1       59     1020     0.00        0     13.3
    03/24/2017 20:15      1.1      212      3.2      201     55.1     55.4     54.9       59     1020     0.00        0     13.3
    03/24/2017 20:30      1.6      226      3.9      240     55.0     55.1     54.8       63     1020     0.00        0     13.3
    03/24/2017 20:45      2.2      226      5.4      250     54.8     55.1     54.6       66     1020     0.00        0     13.3
    03/24/2017 21:00      1.3      221      4.8      224     54.4     54.9     54.2       66     1021     0.00        0     13.3
    03/24/2017 21:15      1.3      208      4.3      199     54.1     54.4     53.8       67     1021     0.00        0     13.3
    03/24/2017 21:30      1.0      188      2.6      193     53.9     54.1     53.6       68     1020     0.00        0     13.3
    03/24/2017 21:45      2.0      170      4.8      163     53.7     53.9     53.5       72     1020     0.00        0     13.3
    03/24/2017 22:00      1.4      202      5.0      202     53.6     54.0     53.2       73     1020     0.00        0     13.3
    03/24/2017 22:15      1.0      214      3.9      212     53.2     53.4     53.0       73     1021     0.00        0     13.3
    03/24/2017 22:30      0.0      291      0.7      294     53.0     53.3     52.7       74     1020     0.00        0     13.3
    03/24/2017 22:45      0.0      181      1.0      183     52.9     53.2     52.7       74     1020     0.00        0     13.3
    03/24/2017 23:00      1.2      180      2.7      208     53.2     53.5     52.9       74     1020     0.00        0     13.3
    03/24/2017 23:15      0.4      124      2.1       85     53.6     53.9     53.2       73     1020     0.00        0     13.3
    03/24/2017 23:30      1.0      159      2.4      167     53.5     53.7     53.2       74     1020     0.00        0     13.3
    03/24/2017 23:45      0.4      211      2.3      206     53.4     53.5     53.2       75     1020     0.00        0     13.3
    03/25/2017 00:00      2.5      257      5.3      245     53.6     54.1     53.2       74     1021     0.00        0     13.3
    03/25/2017 00:15      1.2      292      4.5      297     54.0     54.2     53.7       74     1021     0.00        0     13.3
    03/25/2017 00:30      2.6       70      5.4       78     54.1     54.4     53.8       78     1020     0.00        0     13.3
    03/25/2017 00:45      2.3       73      5.2       91     53.8     54.1     53.3       81     1019     0.00        0     13.3
    03/25/2017 01:00      1.3      305      3.6      298     53.3     53.6     53.0       83     1019     0.00        0     13.3
    03/25/2017 01:15      1.5      332      3.3      343     53.2     53.4     53.0       83     1019     0.00        0     13.3
    03/25/2017 01:30      0.7      259      2.6      289     53.1     53.3     52.7       82     1019     0.00        0     13.3
    03/25/2017 01:45      0.5      249      2.0      252     52.9     53.2     52.7       83     1019     0.00        0     13.3
    03/25/2017 02:00      0.9      221      3.3      209     52.6     52.9     52.4       83     1019     0.00        0     13.4
    03/25/2017 02:15      2.7      210      6.1      214     52.5     52.7     52.4       84     1019     0.00        0     13.4
    03/25/2017 02:30      1.4      224      3.6      205     52.2     52.5     52.0       84     1018     0.00        0     13.4
    03/25/2017 02:45      0.9      303      2.8      289     52.1     52.3     51.9       85     1018     0.00        0     13.4
    03/25/2017 03:00      1.4      283      3.7      292     51.8     52.1     51.6       86     1019     0.00        0     13.4
    03/25/2017 03:15      0.7      281      2.4      305     51.5     51.8     51.2       87     1019     0.00        0     13.4
    03/25/2017 03:30      0.8      295      2.1      293     51.1     51.4     50.7       87     1018     0.00        0     13.4
    03/25/2017 03:45      2.2       62      3.2       68     51.0     51.2     50.7       87     1018     0.00        0     13.4
    03/25/2017 04:00      1.0       51      2.7       37     50.9     51.2     50.6       87     1018     0.00        0     13.4
    03/25/2017 04:15      1.2       38      3.2       32     50.8     51.2     50.2       87     1018     0.00        0     13.4
    03/25/2017 04:30      0.8      305      1.7      329     50.1     50.4     49.9       88     1018     0.00        0     13.4
    03/25/2017 04:45      1.2      336      2.6      349     50.2     50.3     50.0       88     1018     0.00        0     13.4
    03/25/2017 05:00      0.2       29      1.5       83     49.9     50.3     49.5       88     1018     0.00        0     13.4
    03/25/2017 05:15      1.0       17      2.6       23     49.7     50.0     49.4       88     1018     0.00        0     13.4
    03/25/2017 05:30      0.3      279      1.6      259     49.0     49.7     48.1       88     1018     0.00        0     13.4
    03/25/2017 05:45      2.0      255      3.6      248     48.5     48.8     48.2       89     1018     0.00        0     13.4
    03/25/2017 06:00      1.2      281      3.5      238     48.5     48.7     48.3       89     1018     0.00        4     13.4
    03/25/2017 06:15      0.3      307      1.5      332     48.4     48.6     48.2       89     1018     0.00       14     13.4
    03/25/2017 06:30      1.5       59      3.2       42     48.8     49.5     48.3       89     1018     0.00       24     13.4
    03/25/2017 06:45      1.5       46      4.0       48     49.8     50.6     49.2       88     1018     0.00       82     13.4
    03/25/2017 07:00      1.2       51      3.2       50     51.6     52.8     50.6       84     1018     0.00      144     13.4
    03/25/2017 07:15      1.9      184      3.8      188     52.9     53.5     52.4       79     1019     0.00      187     13.4
    03/25/2017 07:30      0.8      174      3.2      193     54.1     54.9     53.2       74     1019     0.00      233     13.3
    03/25/2017 07:45      0.9      155      3.2       97     55.8     56.9     54.8       69     1019     0.00      277     13.3
    03/25/2017 08:00      1.8      190      3.8      153     56.5     57.0     56.0       69     1019     0.00      293     13.3
    03/25/2017 08:15      1.4      130      4.4      172     56.5     56.9     56.1       70     1019     0.00      282     13.3
    03/25/2017 08:30      2.3      157      5.7      169     57.8     58.5     56.8       68     1019     0.00      447     13.2
    03/25/2017 08:45      2.9       80      5.8       91     58.5     59.2     57.8       65     1019     0.00      480     13.2
    03/25/2017 09:00      2.8      115      6.5      168     59.2     59.9     58.7       64     1019     0.00      523     13.2
    03/25/2017 09:15      3.0      149      5.8       96     60.0     60.7     59.3       61     1019     0.01      552     13.2
    03/25/2017 09:30      3.1      136      5.9       88     60.5     61.6     59.8       57     1018     0.00      617     13.1
    03/25/2017 09:45      1.7      178      4.6      171     61.7     62.5     60.5       56     1018     0.00      513     13.1
    03/25/2017 10:00      3.1      138      6.8      169     61.6     62.2     61.1       54     1018     0.00      641     13.1
    03/25/2017 10:15      3.1      156      7.5      219     63.1     64.0     62.1       53     1018     0.00      728     13.1
    03/25/2017 10:30      2.9      190      6.0      167     64.1     64.6     63.8       51     1018     0.00      789     13.0
    03/25/2017 10:45      2.7      269      6.2      182     63.9     64.5     63.3       51     1018     0.00      652     13.0
    03/25/2017 11:00      2.2      244      8.0      252     64.0     64.7     63.3       49     1018     0.00      673     13.0
    03/25/2017 11:15      1.5      235      3.9      231     65.2     66.7     64.0       47     1018     0.00      837     13.0
    03/25/2017 11:30      3.7      207     10.0      192     65.9     66.8     65.2       48     1017     0.00      937     13.0
    03/25/2017 11:45      3.2      179      8.9      167     66.2     67.0     65.1       48     1017     0.00      686     13.0
    03/25/2017 12:00      3.6      190      7.8      178     65.2     65.9     64.5       53     1017     0.00      406     13.0
    03/25/2017 12:15      3.4      171      7.2      166     66.6     68.9     64.9       45     1017     0.00      814     13.0
    03/25/2017 12:30      4.3      258      9.6      299     67.7     69.0     66.9       49     1017     0.00      750     13.0
    03/25/2017 12:45      3.0      261      7.4      243     67.2     68.1     66.5       45     1017     0.00      548     13.0
    03/25/2017 13:00      3.8      259      9.7      260     67.3     68.0     66.3       47     1016     0.00      542     13.0
    03/25/2017 13:15      4.0      246      9.6      224     68.3     69.7     66.8       44     1016     0.00      786     13.0
    03/25/2017 13:30      3.7      219      8.6      225     67.7     68.3     66.9       43     1016     0.00      629     13.0
    03/25/2017 13:45      4.9      232     13.4      242     68.5     69.0     67.7       42     1016     0.00      801     13.0
    03/25/2017 14:00      4.8      259     12.9      263     67.9     69.5     66.9       46     1016     0.00      437     13.0
    03/25/2017 14:15      4.3      282     11.0      282     67.8     68.7     67.0       42     1015     0.00      621     13.0
    03/25/2017 14:30      4.4      262     11.7      241     68.4     69.3     68.0       42     1015     0.00      680     13.0
    03/25/2017 14:45      5.0      243     12.4      257     68.2     69.4     67.3       41     1015     0.00      609     13.0
    03/25/2017 15:00      4.8      244      9.7      277     67.3     68.6     66.2       46     1015     0.00      339     13.0
    03/25/2017 15:15      5.9      278     14.7      244     67.3     68.3     66.4       47     1015     0.00      450     13.0
    03/25/2017 15:30      6.3      280     12.7      286     67.5     68.0     66.6       48     1015     0.00      521     13.0
    03/25/2017 15:45      6.8      267     16.4      247     66.3     66.7     65.7       49     1015     0.00      454     13.0
    03/25/2017 16:00      7.1      269     16.4      285     65.3     66.0     64.8       44     1015     0.00      403     13.0
    03/25/2017 16:15      6.2      278     16.1      256     64.6     65.2     64.0       51     1015     0.00      327     13.0
    03/25/2017 16:30      5.6      256     13.5      252     64.8     65.2     64.4       51     1015     0.00      300     13.0
    03/25/2017 16:45      5.6      274     11.9      251     64.5     65.2     63.8       49     1015     0.00      244     13.0
    03/25/2017 17:00      5.3      262     11.1      247     63.9     64.3     63.5       50     1015     0.00      188     13.1
    03/25/2017 17:15      4.6      266     11.0      226     63.5     64.0     63.3       52     1015     0.00      156     13.1
    03/25/2017 17:30      5.2      249     10.8      263     62.9     63.6     62.4       55     1015     0.00       96     13.1
    03/25/2017 17:45      3.3      267      8.9      242     62.4     62.8     61.9       57     1015     0.00       64     13.1
    03/25/2017 18:00      3.8      252      9.9      261     61.9     62.2     61.4       58     1015     0.00       33     13.1
    03/25/2017 18:15      2.0      222      5.2      221     60.8     61.5     60.2       60     1015     0.00        6     13.2
    03/25/2017 18:30      1.9      240      6.4      207     60.0     60.4     59.6       61     1015     0.00        0     13.2
    03/25/2017 18:45      2.7      252      7.9      261     59.6     60.0     59.2       62     1015     0.00        0     13.2
    03/25/2017 19:00      2.1      241      6.7      249     59.1     59.7     58.7       64     1015     0.00        0     13.2
    03/25/2017 19:15      1.5      224      4.7      208     58.4     58.8     58.0       65     1016     0.00        0     13.3
    03/25/2017 19:30      1.5      213      4.7      189     58.0     58.4     57.6       66     1016     0.00        0     13.3
    03/25/2017 19:45      1.6      188      4.2      184     57.5     57.9     57.2       68     1016     0.00        0     13.3
    03/25/2017 20:00      1.1      105      3.4       58     57.4     57.9     57.1       68     1016     0.00        0     13.3
    03/25/2017 20:15      1.4       87      3.3       65     57.8     58.0     57.6       66     1016     0.00        0     13.3
    03/25/2017 20:30      1.7       94      3.6       46     57.6     57.9     57.3       69     1016     0.00        0     13.3
    03/25/2017 20:45      1.9       91      4.6       88     57.3     57.5     57.0       73     1016     0.00        0     13.3
    03/25/2017 21:00      1.5       65      3.1       40     57.0     57.3     56.8       74     1016     0.00        0     13.3
    03/25/2017 21:15      0.1      214      1.5      222     56.2     57.0     55.6       76     1016     0.00        0     13.3
    03/25/2017 21:30      0.0      146      0.7      150     55.5     55.9     55.2       77     1016     0.00        0     13.3
    03/25/2017 21:45      0.0      271      1.2      293     55.1     55.3     54.7       77     1016     0.00        0     13.3
    03/25/2017 22:00      0.3      185      2.4      159     54.5     54.8     54.1       77     1016     0.00        0     13.3
    03/25/2017 22:15      0.4      287      1.8      294     54.0     54.3     53.8       77     1016     0.00        0     13.3
    03/25/2017 22:30      0.4      203      1.8      236     54.1     54.4     53.8       76     1016     0.00        0     13.3
    03/25/2017 22:45      0.4       69      2.1      255     53.9     54.2     53.6       75     1016     0.00        0     13.3
    03/25/2017 23:00      0.7      118      2.8      146     53.8     54.4     53.5       74     1016     0.00        0     13.4
    03/25/2017 23:15      0.9      154      3.0      108     54.1     54.5     53.8       73     1016     0.00        0     13.4